createdAt,value
2018-04-09T00:02:09.769Z,5.80
2018-04-09T00:04:37.212Z,6.73
2018-04-09T00:07:04.670Z,6.20
2018-04-09T00:09:32.112Z,6.10
2018-04-09T00:12:00.327Z,6.20
2018-04-09T00:14:27.772Z,7.00
2018-04-09T00:16:55.230Z,6.90
2018-04-09T00:19:22.683Z,6.67
2018-04-09T00:21:50.779Z,6.37
2018-04-09T00:24:18.236Z,6.33
2018-04-09T00:26:45.682Z,6.70
2018-04-09T00:29:13.154Z,6.90
2018-04-09T00:31:40.595Z,7.23
2018-04-09T00:34:08.795Z,6.63
2018-04-09T00:36:36.253Z,6.83
2018-04-09T00:39:03.696Z,6.73
2018-04-09T00:41:31.901Z,6.90
2018-04-09T00:43:59.340Z,6.40
2018-04-09T00:46:26.788Z,7.13
2018-04-09T00:48:54.997Z,6.33
2018-04-09T00:51:22.435Z,6.70
2018-04-09T00:53:59.511Z,6.50
2018-04-09T00:56:27.732Z,6.47
2018-04-09T00:58:55.190Z,7.10
2018-04-09T01:01:22.641Z,6.30
2018-04-09T01:03:50.067Z,7.30
2018-04-09T01:06:18.331Z,6.77
2018-04-09T01:08:45.763Z,6.50
2018-04-09T01:11:13.980Z,6.73
2018-04-09T01:13:41.415Z,6.57
2018-04-09T01:16:08.851Z,7.00
2018-04-09T01:18:36.303Z,6.30
2018-04-09T01:21:03.739Z,6.33
2018-04-09T01:23:31.952Z,7.07
2018-04-09T01:25:59.387Z,7.40
2018-04-09T01:28:26.841Z,7.40
2018-04-09T01:30:55.043Z,7.07
2018-04-09T01:33:22.505Z,7.07
2018-04-09T01:35:50.324Z,7.80
2018-04-09T01:38:17.823Z,7.30
2018-04-09T01:40:46.011Z,7.13
2018-04-09T01:43:13.991Z,8.00
2018-04-09T01:45:41.435Z,8.03
2018-04-09T01:48:09.644Z,7.27
2018-04-09T01:50:37.079Z,8.37
2018-04-09T01:53:04.531Z,8.23
2018-04-09T01:55:32.739Z,6.80
2018-04-09T01:58:00.189Z,7.10
2018-04-09T02:00:27.636Z,6.87
2018-04-09T02:02:55.108Z,7.80
2018-04-09T02:05:22.543Z,6.97
2018-04-09T02:07:51.179Z,7.00
2018-04-09T02:10:18.618Z,7.17
2018-04-09T02:12:46.069Z,7.30
2018-04-09T02:15:13.517Z,7.57
2018-04-09T02:17:41.728Z,7.20
2018-04-09T02:20:09.192Z,8.33
2018-04-09T02:22:36.640Z,8.00
2018-04-09T02:25:04.091Z,6.90
2018-04-09T02:27:31.541Z,7.40
2018-04-09T02:29:59.753Z,7.40
2018-04-09T02:32:27.192Z,7.73
2018-04-09T02:34:54.627Z,7.50
2018-04-09T02:37:22.859Z,7.60
2018-04-09T02:39:50.303Z,6.70
2018-04-09T02:42:17.766Z,7.50
2018-04-09T02:44:45.211Z,7.80
2018-04-09T02:47:13.427Z,7.30
2018-04-09T02:49:40.884Z,6.90
2018-04-09T02:52:08.340Z,7.73
2018-04-09T02:54:35.812Z,7.53
2018-04-09T02:57:03.256Z,8.30
2018-04-09T02:59:30.715Z,7.57
2018-04-09T03:01:58.174Z,7.77
2018-04-09T03:04:25.627Z,7.90
2018-04-09T03:06:53.079Z,7.80
2018-04-09T03:09:21.326Z,7.93
2018-04-09T03:11:48.749Z,7.43
2018-04-09T03:14:16.193Z,7.70
2018-04-09T03:16:43.636Z,7.60
2018-04-09T03:19:11.848Z,7.90
2018-04-09T03:21:39.288Z,8.07
2018-04-09T03:24:06.752Z,8.37
2018-04-09T03:26:34.199Z,8.13
2018-04-09T03:29:02.408Z,8.20
2018-04-09T03:31:29.850Z,8.33
2018-04-09T03:33:57.316Z,8.20
2018-04-09T03:36:25.450Z,8.80
2018-04-09T03:38:52.904Z,9.93
2018-04-09T03:41:20.356Z,7.63
2018-04-09T03:43:47.812Z,8.60
2018-04-09T03:46:15.279Z,8.30
2018-04-09T03:48:42.711Z,9.33
2018-04-09T03:51:10.155Z,9.57
2018-04-09T03:53:37.606Z,8.47
2018-04-09T03:56:05.812Z,8.93
2018-04-09T03:58:33.255Z,8.77
2018-04-09T04:01:00.711Z,10.20
2018-04-09T04:03:28.198Z,9.83
2018-04-09T04:05:55.645Z,9.40
2018-04-09T04:08:23.125Z,11.00
2018-04-09T04:10:50.577Z,10.80
2018-04-09T04:13:18.028Z,9.40
2018-04-09T04:15:57.280Z,10.57
2018-04-09T04:21:37.189Z,9.13
2018-04-09T04:24:05.395Z,9.23
2018-04-09T04:26:32.864Z,10.53
2018-04-09T04:29:00.305Z,9.70
2018-04-09T04:31:27.752Z,9.50
2018-04-09T04:33:55.970Z,10.10
2018-04-09T04:36:23.412Z,9.50
2018-04-09T04:38:50.856Z,10.83
2018-04-09T04:41:19.079Z,9.70
2018-04-09T04:43:46.540Z,10.73
2018-04-09T04:46:13.984Z,10.17
2018-04-09T04:48:41.446Z,9.80
2018-04-09T04:51:08.876Z,11.00
2018-04-09T04:53:37.110Z,11.03
2018-04-09T04:56:04.608Z,10.70
2018-04-09T04:58:32.000Z,11.67
2018-04-09T05:00:59.448Z,10.67
2018-04-09T05:03:26.902Z,10.20
2018-04-09T05:05:55.104Z,11.33
2018-04-09T05:08:22.551Z,11.57
2018-04-09T05:10:50.000Z,11.40
2018-04-09T05:13:18.216Z,10.20
2018-04-09T05:15:45.668Z,11.80
2018-04-09T05:18:13.116Z,10.93
2018-04-09T05:20:40.617Z,11.13
2018-04-09T05:23:08.027Z,11.23
2018-04-09T05:25:36.245Z,12.00
2018-04-09T05:28:03.688Z,12.10
2018-04-09T05:30:31.141Z,12.27
2018-04-09T05:32:58.584Z,12.67
2018-04-09T05:35:26.804Z,11.60
2018-04-09T05:37:55.169Z,13.50
2018-04-09T05:40:22.628Z,12.80
2018-04-09T05:42:50.066Z,12.90
2018-04-09T05:45:18.284Z,11.70
2018-04-09T05:47:45.731Z,13.37
2018-04-09T05:50:13.225Z,11.50
2018-04-09T05:52:40.673Z,12.33
2018-04-09T05:55:08.108Z,13.73
2018-04-09T05:57:35.562Z,13.00
2018-04-09T06:00:03.000Z,16.03
2018-04-09T06:02:31.225Z,13.90
2018-04-09T06:04:58.712Z,14.80
2018-04-09T06:07:26.875Z,14.07
2018-04-09T06:09:54.331Z,13.87
2018-04-09T06:12:21.769Z,12.77
2018-04-09T06:14:49.230Z,15.80
2018-04-09T06:17:16.680Z,16.03
2018-04-09T06:19:44.932Z,15.67
2018-04-09T06:22:12.367Z,15.50
2018-04-09T06:24:39.823Z,13.23
2018-04-09T06:27:07.296Z,14.27
2018-04-09T06:29:34.731Z,14.20
2018-04-09T06:32:02.188Z,14.93
2018-04-09T06:34:29.659Z,14.07
2018-04-09T06:36:57.104Z,14.63
2018-04-09T06:39:24.560Z,13.87
2018-04-09T06:41:52.020Z,13.93
2018-04-09T06:44:19.473Z,16.17
2018-04-09T06:46:47.695Z,16.10
2018-04-09T06:49:15.136Z,14.70
2018-04-09T06:51:42.628Z,14.70
2018-04-09T06:54:10.100Z,16.10
2018-04-09T06:56:37.555Z,16.67
2018-04-09T06:59:04.998Z,18.67
2018-04-09T07:01:32.541Z,17.50
2018-04-09T07:04:00.036Z,18.37
2018-04-09T07:06:27.496Z,18.17
2018-04-09T07:08:54.997Z,17.43
2018-04-09T07:11:22.419Z,18.93
2018-04-09T07:13:49.879Z,20.27
2018-04-09T07:16:17.349Z,24.07
2018-04-09T07:18:44.801Z,24.33
2018-04-09T07:21:12.253Z,24.93
2018-04-09T07:23:39.700Z,23.80
2018-04-09T07:26:07.184Z,22.90
2018-04-09T07:28:34.627Z,22.83
2018-04-09T07:31:02.112Z,22.60
2018-04-09T07:33:29.535Z,23.40
2018-04-09T07:35:56.998Z,24.97
2018-04-09T07:38:24.502Z,26.47
2018-04-09T07:40:51.931Z,28.00
2018-04-09T07:43:19.388Z,32.00
2018-04-09T07:45:46.826Z,30.27
2018-04-09T07:48:15.040Z,34.50
2018-04-09T07:50:42.475Z,35.53
2018-04-09T07:53:09.925Z,34.43
2018-04-09T07:55:38.127Z,36.77
2018-04-09T07:58:05.581Z,37.17
2018-04-09T08:00:33.029Z,40.00
2018-04-09T08:03:00.480Z,33.80
2018-04-09T08:05:28.794Z,36.23
2018-04-09T08:07:56.259Z,38.10
2018-04-09T08:10:23.708Z,37.87
2018-04-09T08:12:51.173Z,26.10
2018-04-09T08:15:18.629Z,36.70
2018-04-09T08:17:46.080Z,36.70
2018-04-09T08:20:13.530Z,38.23
2018-04-09T08:22:41.751Z,38.70
2018-04-09T08:25:09.211Z,39.70
2018-04-09T08:27:37.223Z,36.87
2018-04-09T08:30:04.667Z,37.93
2018-04-09T08:32:32.116Z,39.50
2018-04-09T08:34:59.562Z,41.93
2018-04-09T08:37:27.051Z,35.00
2018-04-09T08:39:54.520Z,36.37
2018-04-09T08:42:21.994Z,40.40
2018-04-09T08:44:49.452Z,34.73
2018-04-09T08:47:16.907Z,33.37
2018-04-09T08:49:44.980Z,41.40
2018-04-09T08:52:12.439Z,36.20
2018-04-09T08:54:39.894Z,43.07
2018-04-09T08:57:07.336Z,45.67
2018-04-09T08:59:34.776Z,37.63
2018-04-09T09:02:02.236Z,37.47
2018-04-09T09:04:29.684Z,47.83
2018-04-09T09:06:57.896Z,39.73
2018-04-09T09:09:25.340Z,49.27
2018-04-09T09:11:52.811Z,47.70
2018-04-09T09:14:20.276Z,38.87
2018-04-09T09:16:47.768Z,38.43
2018-04-09T09:19:15.246Z,38.70
2018-04-09T09:21:42.701Z,48.20
2018-04-09T09:24:10.143Z,47.87
2018-04-09T09:26:37.585Z,47.33
2018-04-09T09:29:05.032Z,43.70
2018-04-09T09:31:32.596Z,31.00
2018-04-09T09:34:00.057Z,41.93
2018-04-09T09:36:27.511Z,45.03
2018-04-09T09:38:54.992Z,45.33
2018-04-09T09:41:22.439Z,42.73
2018-04-09T09:43:49.892Z,39.93
2018-04-09T09:46:17.339Z,38.27
2018-04-09T09:48:45.564Z,43.13
2018-04-09T09:51:13.109Z,43.00
2018-04-09T09:53:40.544Z,37.13
2018-04-09T09:56:08.801Z,42.83
2018-04-09T09:58:36.254Z,41.70
2018-04-09T10:01:03.706Z,43.60
2018-04-09T10:03:31.197Z,38.93
2018-04-09T10:05:58.679Z,32.37
2018-04-09T10:08:26.913Z,35.83
2018-04-09T10:10:54.397Z,42.07
2018-04-09T10:13:22.081Z,35.53
2018-04-09T10:15:49.561Z,36.57
2018-04-09T10:18:17.025Z,27.90
2018-04-09T10:20:44.501Z,40.40
2018-04-09T10:23:11.965Z,42.93
2018-04-09T10:25:39.439Z,38.20
2018-04-09T10:28:06.932Z,41.30
2018-04-09T10:30:34.399Z,33.10
2018-04-09T10:33:01.877Z,40.20
2018-04-09T10:35:30.106Z,30.40
2018-04-09T10:37:57.561Z,32.47
2018-04-09T10:40:25.047Z,37.40
2018-04-09T10:42:52.496Z,33.23
2018-04-09T10:45:19.946Z,37.83
2018-04-09T10:47:47.398Z,35.80
2018-04-09T10:50:14.855Z,37.50
2018-04-09T10:52:42.319Z,35.40
2018-04-09T10:55:09.775Z,34.80
2018-04-09T10:57:37.229Z,34.07
2018-04-09T11:00:04.675Z,35.27
2018-04-09T11:02:32.111Z,34.57
2018-04-09T11:05:00.348Z,36.63
2018-04-09T11:07:27.800Z,38.27
2018-04-09T11:09:55.356Z,36.93
2018-04-09T11:12:22.800Z,35.60
2018-04-09T11:14:50.256Z,36.33
2018-04-09T11:17:18.479Z,31.50
2018-04-09T11:19:45.960Z,23.23
2018-04-09T11:22:13.409Z,29.83
2018-04-09T11:24:40.942Z,37.63
2018-04-09T11:27:08.428Z,38.13
2018-04-09T11:29:35.875Z,39.50
2018-04-09T11:32:03.319Z,40.13
2018-04-09T11:34:30.771Z,35.03
2018-04-09T11:36:58.221Z,34.80
2018-04-09T11:39:26.534Z,42.33
2018-04-09T11:41:53.990Z,33.63
2018-04-09T11:44:21.489Z,39.13
2018-04-09T11:46:48.926Z,38.00
2018-04-09T11:49:16.390Z,25.70
2018-04-09T11:51:43.883Z,38.53
2018-04-09T11:54:11.454Z,38.67
2018-04-09T11:56:38.917Z,24.83
2018-04-09T11:59:06.462Z,39.37
2018-04-09T12:01:33.917Z,35.50
2018-04-09T12:04:01.374Z,29.70
2018-04-09T12:06:28.855Z,42.50
2018-04-09T12:08:56.297Z,35.13
2018-04-09T12:11:23.746Z,38.30
2018-04-09T12:13:51.202Z,37.40
2018-04-09T12:16:18.662Z,30.00
2018-04-09T12:18:46.119Z,41.77
2018-04-09T12:21:13.558Z,33.77
2018-04-09T12:23:41.794Z,41.27
2018-04-09T12:26:09.218Z,26.47
2018-04-09T12:28:36.787Z,45.30
2018-04-09T12:31:04.254Z,42.20
2018-04-09T12:33:31.735Z,43.50
2018-04-09T12:35:59.177Z,41.83
2018-04-09T12:38:26.617Z,43.10
2018-04-09T12:40:54.113Z,40.53
2018-04-09T12:43:21.652Z,38.67
2018-04-09T12:45:49.102Z,29.67
2018-04-09T12:48:17.343Z,35.43
2018-04-09T12:50:44.784Z,43.80
2018-04-09T12:53:12.225Z,44.77
2018-04-09T12:55:39.713Z,28.60
2018-04-09T12:58:07.161Z,34.27
2018-04-09T13:00:34.629Z,37.07
2018-04-09T13:03:02.847Z,35.67
2018-04-09T13:05:31.071Z,42.27
2018-04-09T13:07:58.541Z,39.17
2018-04-09T13:10:26.012Z,39.97
2018-04-09T13:12:53.445Z,37.37
2018-04-09T13:15:20.897Z,28.60
2018-04-09T13:17:48.346Z,26.17
2018-04-09T13:20:15.849Z,24.43
2018-04-09T13:22:43.317Z,15.57
2018-04-09T13:25:10.792Z,39.47
2018-04-09T13:27:38.234Z,24.63
2018-04-09T13:30:05.698Z,29.37
2018-04-09T13:32:33.154Z,38.67
2018-04-09T13:35:00.699Z,39.63
2018-04-09T13:37:28.129Z,36.87
2018-04-09T13:39:56.351Z,42.50
2018-04-09T13:42:23.822Z,36.37
2018-04-09T13:44:51.278Z,22.87
2018-04-09T13:47:18.753Z,43.67
2018-04-09T13:49:46.350Z,35.93
2018-04-09T13:52:14.558Z,40.90
2018-04-09T13:54:42.056Z,40.70
2018-04-09T13:57:09.525Z,35.97
2018-04-09T13:59:36.972Z,38.87
2018-04-09T14:02:04.438Z,39.00
2018-04-09T14:04:31.884Z,43.73
2018-04-09T14:06:59.338Z,27.50
2018-04-09T14:09:26.797Z,32.03
2018-04-09T14:11:54.250Z,35.10
2018-04-09T14:14:22.336Z,39.10
2018-04-09T14:16:50.886Z,17.53
2018-04-09T14:19:19.202Z,35.27
2018-04-09T14:21:46.646Z,25.20
2018-04-09T14:24:14.150Z,44.00
2018-04-09T14:26:41.607Z,44.07
2018-04-09T14:29:09.093Z,26.47
2018-04-09T14:31:36.539Z,35.83
2018-04-09T14:34:04.001Z,40.77
2018-04-09T14:36:31.561Z,25.33
2018-04-09T14:38:59.021Z,42.20
2018-04-09T14:41:26.481Z,44.57
2018-04-09T14:43:54.022Z,27.97
2018-04-09T14:46:21.478Z,37.73
2018-04-09T14:48:48.922Z,40.73
2018-04-09T14:51:16.430Z,16.87
2018-04-09T14:53:43.875Z,26.70
2018-04-09T14:56:11.377Z,23.90
2018-04-09T14:58:38.805Z,37.83
2018-04-09T15:01:06.294Z,41.70
2018-04-09T15:03:33.850Z,30.60
2018-04-09T15:06:01.281Z,34.90
2018-04-09T15:08:28.727Z,32.83
2018-04-09T15:10:56.182Z,28.00
2018-04-09T15:13:23.654Z,26.40
2018-04-09T15:15:51.111Z,42.30
2018-04-09T15:18:18.567Z,33.70
2018-04-09T15:20:46.804Z,30.80
2018-04-09T15:23:15.032Z,22.97
2018-04-09T15:25:42.524Z,38.50
2018-04-09T15:28:09.971Z,32.47
2018-04-09T15:30:37.408Z,43.03
2018-04-09T15:33:05.640Z,18.53
2018-04-09T15:35:33.762Z,36.47
2018-04-09T15:38:01.205Z,43.40
2018-04-09T15:40:30.482Z,40.30
2018-04-09T15:42:57.938Z,45.17
2018-04-09T15:45:25.394Z,41.37
2018-04-09T15:47:52.853Z,35.90
2018-04-09T15:50:20.294Z,37.47
2018-04-09T15:52:47.778Z,31.63
2018-04-09T15:55:15.227Z,38.10
2018-04-09T15:57:42.677Z,25.23
2018-04-09T16:00:10.157Z,28.63
2018-04-09T16:02:37.614Z,29.80
2018-04-09T16:05:05.161Z,40.30
2018-04-09T16:07:40.484Z,28.30
2018-04-09T16:10:08.687Z,35.73
2018-04-09T16:12:36.163Z,18.60
2018-04-09T16:15:03.622Z,30.17
2018-04-09T16:17:31.090Z,36.90
2018-04-09T16:19:58.536Z,24.37
2018-04-09T16:22:25.977Z,18.73
2018-04-09T16:24:53.417Z,37.57
2018-04-09T16:27:21.650Z,29.97
2018-04-09T16:29:49.862Z,37.63
2018-04-09T16:32:18.833Z,25.00
2018-04-09T16:34:46.321Z,19.60
2018-04-09T16:37:14.561Z,24.97
2018-04-09T16:39:42.001Z,24.13
2018-04-09T16:42:09.467Z,40.93
2018-04-09T16:44:36.933Z,17.97
2018-04-09T16:47:04.387Z,22.10
2018-04-09T16:49:31.841Z,32.40
2018-04-09T16:51:59.289Z,39.03
2018-04-09T16:54:27.506Z,20.60
2018-04-09T16:56:54.956Z,20.60
2018-04-09T16:59:22.406Z,29.67
2018-04-09T17:01:49.877Z,36.63
2018-04-09T17:04:17.317Z,32.80
2018-04-09T17:06:44.765Z,38.23
2018-04-09T17:09:12.980Z,39.10
2018-04-09T17:11:40.442Z,15.33
2018-04-09T17:14:07.894Z,27.87
2018-04-09T17:16:35.334Z,24.23
2018-04-09T17:19:03.541Z,32.10
2018-04-09T17:21:31.039Z,37.73
2018-04-09T17:23:58.522Z,33.53
2018-04-09T17:26:26.050Z,19.37
2018-04-09T17:28:53.624Z,37.30
2018-04-09T17:31:21.064Z,19.57
2018-04-09T17:33:48.517Z,24.70
2018-04-09T17:36:15.959Z,25.80
2018-04-09T17:38:43.405Z,37.43
2018-04-09T17:41:11.630Z,35.53
2018-04-09T17:43:39.089Z,36.27
2018-04-09T17:46:06.529Z,38.00
2018-04-09T17:48:33.982Z,26.93
2018-04-09T17:51:01.423Z,37.37
2018-04-09T17:53:29.638Z,36.80
2018-04-09T17:55:57.133Z,35.50
2018-04-09T17:58:24.598Z,37.87
2018-04-09T18:00:52.030Z,38.90
2018-04-09T18:03:19.489Z,31.80
2018-04-09T18:05:46.936Z,35.90
2018-04-09T18:08:14.390Z,26.70
2018-04-09T18:10:41.832Z,32.17
2018-04-09T18:13:10.047Z,38.80
2018-04-09T18:15:37.647Z,26.60
2018-04-09T18:18:05.170Z,37.90
2018-04-09T18:20:32.603Z,37.50
2018-04-09T18:23:00.809Z,34.20
2018-04-09T18:25:28.255Z,37.80
2018-04-09T18:27:55.732Z,24.33
2018-04-09T18:30:23.153Z,37.80
2018-04-09T18:32:51.366Z,37.97
2018-04-09T18:35:18.815Z,24.83
2018-04-09T18:37:47.033Z,38.50
2018-04-09T18:40:14.485Z,38.40
2018-04-09T18:42:41.977Z,38.10
2018-04-09T18:45:09.414Z,38.90
2018-04-09T18:47:36.877Z,38.70
2018-04-09T18:50:04.330Z,37.47
2018-04-09T18:52:31.757Z,38.70
2018-04-09T18:54:59.213Z,39.20
2018-04-09T18:57:26.672Z,37.93
2018-04-09T18:59:54.894Z,39.20
2018-04-09T19:02:22.337Z,37.37
2018-04-09T19:04:49.798Z,38.83
2018-04-09T19:07:17.259Z,37.50
2018-04-09T19:09:44.710Z,41.17
2018-04-09T19:12:12.146Z,41.73
2018-04-09T19:14:40.365Z,40.67
2018-04-09T19:17:07.811Z,37.70
2018-04-09T19:19:35.280Z,39.40
2018-04-09T19:22:02.714Z,39.70
2018-04-09T19:24:30.934Z,39.00
2018-04-09T19:26:58.392Z,39.00
2018-04-09T19:29:25.842Z,38.00
2018-04-09T19:31:53.277Z,40.00
2018-04-09T19:34:21.498Z,39.27
2018-04-09T19:36:54.664Z,38.40
2018-04-09T19:39:27.654Z,39.60
2018-04-09T19:41:55.089Z,41.77
2018-04-09T19:44:23.310Z,38.97
2018-04-09T19:46:50.752Z,37.77
2018-04-09T19:49:18.195Z,39.33
2018-04-09T19:51:46.505Z,38.77
2018-04-09T19:54:13.949Z,41.00
2018-04-09T19:56:41.410Z,38.97
2018-04-09T19:59:08.870Z,39.87
2018-04-09T20:01:37.081Z,40.93
2018-04-09T20:04:04.535Z,38.07
2018-04-09T20:06:31.981Z,38.90
2018-04-09T20:08:59.430Z,38.23
2018-04-09T20:11:27.642Z,37.87
2018-04-09T20:13:55.093Z,37.80
2018-04-09T20:16:22.554Z,38.40
2018-04-09T20:18:50.007Z,37.07
2018-04-09T20:21:18.682Z,36.53
2018-04-09T20:23:46.889Z,35.70
2018-04-09T20:26:14.350Z,35.77
2018-04-09T20:28:41.802Z,26.97
2018-04-09T20:31:09.249Z,29.97
2018-04-09T20:33:36.695Z,31.47
2018-04-09T20:36:04.929Z,27.50
2018-04-09T20:38:32.382Z,28.20
2018-04-09T20:40:59.837Z,25.57
2018-04-09T20:43:27.290Z,29.30
2018-04-09T20:45:54.733Z,26.07
2018-04-09T20:48:22.203Z,30.23
2018-04-09T20:50:49.661Z,27.40
2018-04-09T20:53:17.108Z,29.40
2018-04-09T20:55:45.335Z,27.43
2018-04-09T20:58:12.786Z,28.90
2018-04-09T21:00:40.243Z,28.43
2018-04-09T21:03:07.701Z,21.43
2018-04-09T21:05:35.181Z,30.13
2018-04-09T21:08:02.724Z,28.70
2018-04-09T21:10:30.164Z,28.47
2018-04-09T21:12:58.361Z,24.80
2018-04-09T21:15:26.730Z,27.90
2018-04-09T21:17:54.929Z,29.03
2018-04-09T21:20:22.388Z,28.40
2018-04-09T21:22:49.838Z,28.20
2018-04-09T21:25:18.060Z,28.80
2018-04-09T21:27:45.486Z,28.50
2018-04-09T21:30:12.943Z,29.70
2018-04-09T21:32:40.405Z,28.73
2018-04-09T21:35:07.868Z,29.10
2018-04-09T21:37:35.298Z,26.00
2018-04-09T21:40:03.514Z,31.50
2018-04-09T21:42:30.957Z,30.63
2018-04-09T21:44:58.421Z,29.70
2018-04-09T21:47:25.856Z,28.60
2018-04-09T21:49:54.078Z,30.03
2018-04-09T21:52:21.526Z,30.13
2018-04-09T21:54:48.993Z,30.50
2018-04-09T21:57:16.443Z,30.47
2018-04-09T21:59:43.889Z,28.77
2018-04-09T22:02:12.097Z,30.23
2018-04-09T22:04:39.548Z,29.37
2018-04-09T22:07:06.990Z,31.53
2018-04-09T22:09:35.314Z,29.20
2018-04-09T22:12:02.745Z,30.37
2018-04-09T22:14:30.209Z,30.10
2018-04-09T22:16:57.673Z,31.90
2018-04-09T22:19:25.865Z,32.40
2018-04-09T22:21:53.313Z,27.63
2018-04-09T22:24:20.765Z,30.10
2018-04-09T22:26:48.213Z,31.53
2018-04-09T22:29:16.423Z,30.10
2018-04-09T22:31:43.869Z,30.93
2018-04-09T22:34:11.313Z,33.17
2018-04-09T22:36:39.541Z,25.40
2018-04-09T22:39:06.994Z,25.23
2018-04-09T22:41:34.458Z,31.30
2018-04-09T22:44:01.893Z,30.00
2018-04-09T22:46:30.097Z,30.47
2018-04-09T22:48:57.554Z,31.00
2018-04-09T22:51:25.009Z,27.60
2018-04-09T22:53:52.453Z,29.67
2018-04-09T22:56:19.913Z,28.33
2018-04-09T22:58:47.353Z,28.37
2018-04-09T23:01:15.585Z,31.13
2018-04-09T23:03:43.027Z,27.17
2018-04-09T23:06:10.486Z,31.40
2018-04-09T23:08:37.930Z,29.63
2018-04-09T23:11:06.154Z,29.40
2018-04-09T23:13:33.585Z,30.30
2018-04-09T23:16:01.046Z,29.20
2018-04-09T23:18:28.485Z,30.47
2018-04-09T23:20:56.795Z,28.17
2018-04-09T23:23:24.245Z,27.87
2018-04-09T23:25:51.689Z,29.83
2018-04-09T23:28:19.918Z,30.60
2018-04-09T23:30:47.377Z,27.40
2018-04-09T23:33:14.830Z,27.97
2018-04-09T23:35:42.285Z,28.97
2018-04-09T23:38:09.735Z,28.17
2018-04-09T23:40:37.977Z,29.70
2018-04-09T23:43:05.429Z,29.37
2018-04-09T23:45:32.865Z,29.17
2018-04-09T23:48:00.342Z,27.30
2018-04-09T23:50:28.560Z,27.50
2018-04-09T23:52:56.785Z,26.77
2018-04-09T23:55:24.243Z,27.97
2018-04-09T23:57:51.686Z,30.67
